Lawson, Missouri
Current Conditions -  °F | °C
As of 3:15 PM on Tuesday 25 Nov 2014 (Local Time) from KGPH Reporting Station
Clear Clear  
Wind Chill: 38°   Ceiling: Unl
Heat Index: 41°   Visibility: 10mi
Dew Point: 12°   Wind: 5mph
Humidity: 31%   Direction: 220°SW
Pressure: 30.12"   Gusts: NA
Location:  39.44°N, 94.2°W
Report Text: KGPH 252115Z AUTO 22004KT 10SM CLR 05/M11 A3012 RMK AO2
Loading
Personal Weather Stations






























Interactive Weather Map New forecast layout! Learn more

10-Day Weather Forecast

Advertisements
Track Severe Weather on mobile